createdAt,value
2018-03-08T00:01:57.089Z,10.73
2018-03-08T00:04:24.624Z,10.97
2018-03-08T00:06:52.181Z,12.70
2018-03-08T00:09:19.716Z,10.03
2018-03-08T00:11:48.014Z,11.60
2018-03-08T00:14:15.573Z,10.00
2018-03-08T00:16:43.858Z,11.57
2018-03-08T00:19:11.422Z,13.60
2018-03-08T00:21:38.952Z,15.23
2018-03-08T00:24:07.275Z,13.60
2018-03-08T00:26:34.818Z,14.30
2018-03-08T00:29:02.370Z,13.03
2018-03-08T00:31:29.922Z,15.77
2018-03-08T00:33:58.248Z,16.90
2018-03-08T00:36:25.779Z,22.20
2018-03-08T00:38:53.334Z,17.07
2018-03-08T00:41:20.875Z,14.73
2018-03-08T00:43:49.205Z,15.43
2018-03-08T00:46:16.738Z,18.60
2018-03-08T00:48:44.304Z,17.20
2018-03-08T00:51:11.854Z,15.10
2018-03-08T00:53:39.403Z,14.73
2018-03-08T00:56:06.935Z,17.93
2018-03-08T00:58:34.498Z,16.63
2018-03-08T01:01:02.835Z,18.37
2018-03-08T01:03:30.386Z,14.40
2018-03-08T01:05:57.937Z,13.07
2018-03-08T01:08:25.500Z,17.50
2018-03-08T01:10:53.035Z,15.03
2018-03-08T01:13:21.411Z,14.20
2018-03-08T01:15:49.712Z,17.50
2018-03-08T01:18:17.280Z,18.27
2018-03-08T01:20:44.805Z,16.13
2018-03-08T01:23:13.211Z,18.80
2018-03-08T01:25:40.768Z,21.63
2018-03-08T01:28:08.326Z,18.37
2018-03-08T01:30:35.862Z,16.53
2018-03-08T01:33:04.186Z,15.83
2018-03-08T01:35:31.714Z,16.90
2018-03-08T01:37:59.273Z,15.93
2018-03-08T01:40:26.809Z,15.77
2018-03-08T01:42:55.136Z,15.30
2018-03-08T01:45:22.666Z,19.33
2018-03-08T01:47:50.231Z,19.67
2018-03-08T01:50:17.770Z,20.60
2018-03-08T01:52:46.098Z,19.00
2018-03-08T01:55:13.629Z,23.00
2018-03-08T01:57:41.190Z,18.23
2018-03-08T02:00:08.730Z,16.73
2018-03-08T02:02:37.046Z,17.77
2018-03-08T02:05:04.578Z,19.43
2018-03-08T02:07:32.901Z,19.27
2018-03-08T02:10:00.422Z,20.60
2018-03-08T02:12:27.978Z,21.13
2018-03-08T02:14:55.509Z,20.07
2018-03-08T02:17:23.075Z,18.10
2018-03-08T02:19:51.387Z,18.13
2018-03-08T02:22:18.917Z,17.87
2018-03-08T02:24:47.238Z,17.77
2018-03-08T02:27:14.771Z,20.13
2018-03-08T02:29:42.330Z,17.00
2018-03-08T02:32:09.862Z,24.10
2018-03-08T02:34:37.414Z,20.00
2018-03-08T02:37:04.951Z,19.23
2018-03-08T02:39:32.510Z,18.27
2018-03-08T02:42:00.051Z,19.50
2018-03-08T02:44:27.608Z,15.73
2018-03-08T02:46:55.139Z,16.90
2018-03-08T02:49:23.462Z,18.73
2018-03-08T02:51:51.004Z,19.23
2018-03-08T02:54:18.569Z,18.20
2018-03-08T02:56:46.107Z,17.80
2018-03-08T02:59:13.664Z,18.43
2018-03-08T03:01:41.195Z,20.97
2018-03-08T03:04:08.758Z,17.70
2018-03-08T03:06:36.303Z,18.47
2018-03-08T03:09:03.857Z,20.47
2018-03-08T03:11:31.394Z,18.33
2018-03-08T03:13:58.966Z,18.97
2018-03-08T03:16:26.501Z,22.40
2018-03-08T03:18:54.054Z,22.10
2018-03-08T03:21:21.578Z,24.67
2018-03-08T03:23:49.906Z,30.83
2018-03-08T03:26:17.437Z,19.93
2018-03-08T03:28:44.995Z,14.30
2018-03-08T03:31:12.533Z,19.97
2018-03-08T03:33:40.870Z,17.97
2018-03-08T03:36:08.402Z,16.60
2018-03-08T03:38:35.958Z,16.20
2018-03-08T03:41:03.633Z,15.63
2018-03-08T03:43:33.137Z,14.90
2018-03-08T03:46:00.676Z,13.70
2018-03-08T03:48:28.235Z,13.90
2018-03-08T03:50:56.536Z,14.40
2018-03-08T03:53:24.086Z,13.97
2018-03-08T03:55:51.617Z,18.33
2018-03-08T03:58:19.942Z,15.00
2018-03-08T04:00:47.705Z,14.33
2018-03-08T04:03:15.253Z,12.97
2018-03-08T04:05:42.778Z,14.70
2018-03-08T04:08:11.101Z,11.70
2018-03-08T04:10:38.626Z,15.50
2018-03-08T04:13:06.954Z,14.00
2018-03-08T04:15:34.478Z,14.67
2018-03-08T04:18:02.039Z,12.37
2018-03-08T04:20:29.570Z,11.27
2018-03-08T04:22:57.886Z,11.90
2018-03-08T04:25:25.411Z,9.43
2018-03-08T04:27:53.733Z,9.50
2018-03-08T04:30:21.267Z,8.97
2018-03-08T04:32:48.795Z,9.13
2018-03-08T04:35:16.346Z,8.67
2018-03-08T04:37:43.870Z,8.67
2018-03-08T04:40:11.423Z,10.40
2018-03-08T04:42:38.954Z,13.40
2018-03-08T04:45:07.278Z,16.03
2018-03-08T04:47:34.824Z,13.83
2018-03-08T04:50:02.385Z,16.10
2018-03-08T04:52:29.920Z,14.13
2018-03-08T04:54:58.242Z,13.60
2018-03-08T04:57:25.782Z,19.33
2018-03-08T04:59:53.333Z,13.90
2018-03-08T05:02:25.294Z,16.77
2018-03-08T05:04:52.842Z,17.80
2018-03-08T05:07:20.370Z,15.40
2018-03-08T05:09:47.943Z,16.43
2018-03-08T05:12:16.249Z,19.50
2018-03-08T05:14:43.818Z,14.00
2018-03-08T05:17:11.355Z,14.90
2018-03-08T05:19:38.906Z,14.47
2018-03-08T05:22:07.197Z,12.90
2018-03-08T05:24:34.764Z,16.40
2018-03-08T05:27:02.299Z,18.50
2018-03-08T05:29:30.622Z,17.27
2018-03-08T05:31:58.161Z,24.93
2018-03-08T05:34:25.718Z,23.00
2018-03-08T05:36:53.478Z,33.67
2018-03-08T05:39:21.263Z,30.43
2018-03-08T05:41:49.195Z,29.87
2018-03-08T05:44:16.989Z,23.70
2018-03-08T05:46:44.709Z,21.63
2018-03-08T05:49:12.300Z,23.47
2018-03-08T05:51:39.835Z,24.67
2018-03-08T05:54:08.165Z,20.70
2018-03-08T05:56:35.786Z,21.90
2018-03-08T05:59:04.121Z,25.53
2018-03-08T06:01:31.662Z,22.93
2018-03-08T06:03:59.223Z,24.97
2018-03-08T06:06:26.757Z,20.53
2018-03-08T06:08:54.338Z,23.13
2018-03-08T06:11:21.862Z,21.63
2018-03-08T06:13:50.189Z,18.00
2018-03-08T06:16:17.742Z,19.47
2018-03-08T06:18:45.298Z,20.10
2018-03-08T06:21:12.843Z,32.17
2018-03-08T06:23:40.399Z,30.57
2018-03-08T06:26:07.932Z,37.17
2018-03-08T06:28:36.269Z,27.20
2018-03-08T06:31:03.802Z,28.53
2018-03-08T06:33:31.354Z,23.10
2018-03-08T06:57:19.633Z,19.13
2018-03-08T06:59:47.957Z,23.80
2018-03-08T07:02:15.487Z,21.37
2018-03-08T07:04:43.048Z,19.63
2018-03-08T07:07:10.594Z,17.93
2018-03-08T07:09:38.146Z,13.50
2018-03-08T07:12:06.434Z,11.13
2018-03-08T07:14:33.978Z,11.93
2018-03-08T07:17:02.264Z,13.53
2018-03-08T07:19:29.822Z,12.10
2018-03-08T07:21:57.347Z,12.97
2018-03-08T07:24:24.908Z,16.20
2018-03-08T07:26:52.435Z,15.77
2018-03-08T07:29:19.978Z,9.77
2018-03-08T07:31:47.507Z,15.10
2018-03-08T07:34:15.820Z,15.90
2018-03-08T07:36:43.347Z,16.97
2018-03-08T07:39:11.674Z,17.10
2018-03-08T07:41:39.210Z,13.40
2018-03-08T07:44:06.758Z,14.60
2018-03-08T07:46:34.306Z,14.27
2018-03-08T07:49:02.603Z,16.40
2018-03-08T07:51:30.154Z,25.60
2018-03-08T07:53:57.686Z,20.60
2018-03-08T07:56:25.234Z,21.07
2018-03-08T07:58:52.759Z,20.70
2018-03-08T08:01:20.319Z,22.63
2018-03-08T08:03:47.851Z,24.57
2018-03-08T08:09:21.618Z,16.83
2018-03-08T08:11:49.175Z,14.17
2018-03-08T08:14:16.694Z,15.03
2018-03-08T08:16:44.250Z,18.37
2018-03-08T08:19:12.543Z,30.57
2018-03-08T08:21:40.091Z,45.20
2018-03-08T08:24:07.626Z,37.30
2018-03-08T08:26:35.948Z,19.60
2018-03-08T08:29:03.476Z,18.00
2018-03-08T08:31:31.792Z,11.30
2018-03-08T08:33:59.330Z,13.40
2018-03-08T08:36:26.887Z,10.70
2018-03-08T08:38:54.413Z,14.77
2018-03-08T08:41:21.958Z,10.80
2018-03-08T08:43:49.487Z,16.70
2018-03-08T08:46:17.042Z,15.83
2018-03-08T08:48:44.582Z,11.77
2018-03-08T08:51:12.103Z,11.50
2018-03-08T08:53:39.655Z,12.53
2018-03-08T08:56:07.180Z,14.70
2018-03-08T08:58:34.743Z,10.53
2018-03-08T09:01:02.274Z,21.93
2018-03-08T09:03:30.591Z,13.70
2018-03-08T09:05:58.115Z,9.93
2018-03-08T09:08:25.662Z,13.30
2018-03-08T09:10:53.958Z,10.10
2018-03-08T09:13:21.515Z,12.00
2018-03-08T09:15:49.138Z,10.13
2018-03-08T09:18:16.691Z,8.83
2018-03-08T09:20:44.219Z,7.60
2018-03-08T09:23:11.773Z,15.63
2018-03-08T09:25:39.298Z,11.03
2018-03-08T09:28:07.614Z,8.03
2018-03-08T09:30:35.141Z,8.27
2018-03-08T09:33:02.695Z,11.83
2018-03-08T09:35:30.987Z,8.73
2018-03-08T09:37:58.552Z,9.30
2018-03-08T09:40:26.089Z,13.00
2018-03-08T09:42:54.418Z,11.37
2018-03-08T09:45:21.942Z,9.70
2018-03-08T09:47:49.493Z,10.37
2018-03-08T09:50:17.807Z,15.53
2018-03-08T09:52:45.334Z,20.70
2018-03-08T09:55:12.894Z,23.10
2018-03-08T09:57:40.418Z,12.83
2018-03-08T10:00:07.970Z,7.20
2018-03-08T10:02:35.491Z,7.63
2018-03-08T10:05:03.038Z,8.07
2018-03-08T10:07:30.566Z,5.60
2018-03-08T10:09:58.126Z,10.03
2018-03-08T10:12:25.650Z,6.90
2018-03-08T10:14:53.206Z,6.90
2018-03-08T10:17:20.730Z,10.80
2018-03-08T10:19:49.051Z,15.33
2018-03-08T10:22:16.571Z,12.27
2018-03-08T10:24:44.130Z,11.30
2018-03-08T10:27:11.666Z,10.03
2018-03-08T10:29:39.963Z,8.40
2018-03-08T10:32:07.520Z,5.50
2018-03-08T10:34:35.816Z,10.70
2018-03-08T10:37:03.370Z,7.43
2018-03-08T10:39:30.894Z,9.30
2018-03-08T10:41:58.438Z,10.70
2018-03-08T10:44:25.970Z,5.90
2018-03-08T10:46:53.519Z,5.90
2018-03-08T10:49:21.053Z,5.53
2018-03-08T10:51:49.375Z,9.63
2018-03-08T10:54:16.936Z,7.50
2018-03-08T10:56:44.470Z,7.33
2018-03-08T10:59:12.939Z,4.80
2018-03-08T11:01:43.528Z,7.73
2018-03-08T11:04:15.014Z,6.80
2018-03-08T11:06:43.327Z,4.57
2018-03-08T11:09:10.859Z,6.50
2018-03-08T11:11:38.406Z,9.97
2018-03-08T11:14:06.705Z,5.17
2018-03-08T11:16:34.261Z,5.77
2018-03-08T11:19:01.788Z,6.30
2018-03-08T11:21:29.345Z,12.03
2018-03-08T11:23:56.874Z,8.10
2018-03-08T11:26:24.424Z,3.90
2018-03-08T11:28:51.946Z,8.73
2018-03-08T11:31:19.488Z,6.50
2018-03-08T11:33:47.783Z,5.60
2018-03-08T11:36:15.335Z,6.77
2018-03-08T11:38:43.627Z,3.33
2018-03-08T11:41:11.174Z,5.53
2018-03-08T11:43:39.507Z,9.37
2018-03-08T11:46:07.056Z,4.20
2018-03-08T11:48:34.582Z,6.80
2018-03-08T11:51:02.144Z,3.93
2018-03-08T11:53:29.674Z,5.13
2018-03-08T11:55:57.222Z,7.70
2018-03-08T11:58:24.746Z,4.70
2018-03-08T12:00:52.307Z,5.93
2018-03-08T12:03:19.826Z,6.37
2018-03-08T12:05:48.143Z,6.03
2018-03-08T12:08:15.669Z,7.47
2018-03-08T12:10:43.978Z,6.50
2018-03-08T12:13:11.498Z,4.70
2018-03-08T12:15:39.814Z,7.10
2018-03-08T12:18:07.351Z,4.03
2018-03-08T12:20:34.904Z,2.40
2018-03-08T12:23:03.198Z,8.60
2018-03-08T12:25:30.751Z,16.83
2018-03-08T12:27:58.292Z,8.53
2018-03-08T12:30:26.605Z,7.40
2018-03-08T12:32:54.127Z,2.73
2018-03-08T12:35:22.447Z,4.90
2018-03-08T12:37:49.978Z,7.93
2018-03-08T12:40:17.532Z,6.13
2018-03-08T12:42:45.075Z,4.63
2018-03-08T12:45:13.362Z,7.00
2018-03-08T12:47:41.681Z,2.97
2018-03-08T12:50:09.211Z,3.60
2018-03-08T12:52:36.767Z,4.90
2018-03-08T12:55:04.290Z,4.77
2018-03-08T12:57:31.838Z,5.93
2018-03-08T12:59:59.363Z,4.50
2018-03-08T13:02:26.917Z,3.93
2018-03-08T13:04:54.447Z,6.83
2018-03-08T13:07:22.772Z,4.53
2018-03-08T13:09:50.307Z,5.63
2018-03-08T13:12:17.910Z,2.77
2018-03-08T13:14:45.440Z,4.30
2018-03-08T13:17:13.024Z,6.87
2018-03-08T13:19:40.555Z,8.70
2018-03-08T13:22:08.110Z,3.63
2018-03-08T13:24:35.640Z,6.87
2018-03-08T13:27:03.193Z,3.90
2018-03-08T13:29:30.731Z,2.47
2018-03-08T13:31:58.294Z,4.17
2018-03-08T13:34:25.827Z,4.00
2018-03-08T13:36:53.385Z,6.13
2018-03-08T13:39:20.920Z,4.60
2018-03-08T13:41:48.471Z,6.33
2018-03-08T13:44:16.776Z,3.73
2018-03-08T13:46:44.303Z,3.93
2018-03-08T13:49:39.467Z,4.40
2018-03-08T13:52:07.022Z,4.03
2018-03-08T13:54:34.555Z,3.40
2018-03-08T13:57:02.122Z,9.13
2018-03-08T13:59:29.662Z,4.90
2018-03-08T14:01:57.210Z,2.87
2018-03-08T14:04:25.514Z,2.40
2018-03-08T14:06:53.056Z,3.00
2018-03-08T14:09:20.617Z,3.27
2018-03-08T14:11:48.156Z,5.40
2018-03-08T14:14:16.495Z,3.47
2018-03-08T14:16:44.026Z,3.37
2018-03-08T14:19:11.578Z,3.37
2018-03-08T14:21:39.119Z,2.33
2018-03-08T14:24:07.450Z,4.10
2018-03-08T14:26:34.991Z,3.37
2018-03-08T14:29:02.558Z,2.67
2018-03-08T14:31:30.108Z,2.50
2018-03-08T14:33:57.658Z,5.60
2018-03-08T14:36:25.195Z,4.00
2018-03-08T14:38:53.523Z,3.37
2018-03-08T14:41:21.064Z,2.93
2018-03-08T14:43:48.640Z,2.33
2018-03-08T14:46:16.180Z,3.83
2018-03-08T14:48:43.738Z,3.47
2018-03-08T14:51:11.299Z,4.77
2018-03-08T14:53:38.835Z,2.20
2018-03-08T14:56:07.155Z,3.80
2018-03-08T14:58:34.693Z,2.47
2018-03-08T15:01:02.254Z,2.20
2018-03-08T15:03:29.827Z,1.83
2018-03-08T15:05:57.371Z,3.20
2018-03-08T15:08:24.901Z,5.83
2018-03-08T15:10:53.225Z,3.40
2018-03-08T15:13:20.767Z,3.63
2018-03-08T15:15:48.323Z,2.50
2018-03-08T15:18:15.852Z,5.77
2018-03-08T15:20:43.409Z,3.37
2018-03-08T15:23:10.942Z,1.97
2018-03-08T15:25:38.494Z,8.03
2018-03-08T15:28:06.022Z,10.23
2018-03-08T15:30:33.547Z,7.27
2018-03-08T15:33:01.111Z,8.00
2018-03-08T15:35:28.640Z,3.60
2018-03-08T15:37:56.195Z,4.73
2018-03-08T15:40:23.728Z,6.23
2018-03-08T15:42:51.283Z,2.90
2018-03-08T15:45:18.811Z,11.10
2018-03-08T15:47:47.126Z,3.43
2018-03-08T15:50:14.658Z,6.23
2018-03-08T15:52:42.991Z,5.03
2018-03-08T15:55:10.522Z,5.20
2018-03-08T15:57:38.106Z,5.10
2018-03-08T16:00:05.638Z,4.60
2018-03-08T16:02:33.202Z,2.70
2018-03-08T16:05:00.747Z,2.57
2018-03-08T16:07:52.950Z,6.03
2018-03-08T16:13:16.717Z,3.00
2018-03-08T16:15:44.246Z,5.90
2018-03-08T16:18:11.805Z,4.07
2018-03-08T16:20:39.347Z,2.53
2018-03-08T16:23:06.920Z,1.90
2018-03-08T16:25:34.446Z,3.27
2018-03-08T16:28:01.987Z,4.40
2018-03-08T16:30:30.363Z,3.33
2018-03-08T16:32:58.735Z,2.87
2018-03-08T16:35:26.295Z,3.67
2018-03-08T16:37:53.831Z,3.13
2018-03-08T16:40:21.387Z,3.17
2018-03-08T16:42:48.921Z,2.83
2018-03-08T16:45:17.264Z,4.17
2018-03-08T16:47:44.808Z,1.80
2018-03-08T16:50:12.354Z,3.37
2018-03-08T16:52:39.885Z,2.67
2018-03-08T16:55:07.440Z,4.83
2018-03-08T16:57:35.729Z,2.70
2018-03-08T17:00:03.273Z,5.00
2018-03-08T17:02:31.563Z,5.57
2018-03-08T17:04:59.121Z,3.83
2018-03-08T17:07:26.687Z,4.37
2018-03-08T17:09:54.239Z,3.30
2018-03-08T17:12:21.770Z,2.80
2018-03-08T17:14:49.302Z,5.60
2018-03-08T17:17:16.858Z,5.37
2018-03-08T17:19:44.383Z,3.83
2018-03-08T17:22:11.939Z,3.03
2018-03-08T17:24:39.466Z,3.93
2018-03-08T17:27:07.019Z,4.10
2018-03-08T17:29:34.543Z,3.23
2018-03-08T17:32:02.090Z,5.30
2018-03-08T17:34:29.620Z,7.13
2018-03-08T17:36:57.946Z,3.20
2018-03-08T17:39:25.505Z,7.37
2018-03-08T17:41:53.046Z,4.30
2018-03-08T17:44:20.570Z,4.20
2018-03-08T17:46:48.883Z,3.60
2018-03-08T17:49:16.405Z,3.23
2018-03-08T17:51:44.726Z,5.17
2018-03-08T17:54:12.271Z,7.77
2018-03-08T17:56:39.822Z,5.33
2018-03-08T17:59:07.366Z,5.90
2018-03-08T18:01:35.680Z,5.90
2018-03-08T18:04:03.205Z,5.17
2018-03-08T18:06:31.526Z,8.10
2018-03-08T18:08:59.058Z,8.20
2018-03-08T18:11:26.583Z,6.60
2018-03-08T18:13:54.130Z,5.30
2018-03-08T18:16:21.649Z,7.23
2018-03-08T18:18:49.195Z,5.50
2018-03-08T18:21:16.727Z,6.77
2018-03-08T18:23:44.270Z,4.57
2018-03-08T18:26:11.803Z,10.57
2018-03-08T18:28:39.356Z,8.63
2018-03-08T18:31:06.949Z,8.63
2018-03-08T18:33:35.369Z,5.60
2018-03-08T18:36:03.658Z,4.60
2018-03-08T18:41:04.204Z,3.40
2018-03-08T18:43:31.762Z,2.83
2018-03-08T18:45:59.287Z,2.70
2018-03-08T18:48:26.835Z,3.10
2018-03-08T18:50:54.359Z,2.90
2018-03-08T18:53:21.903Z,3.10
2018-03-08T18:55:49.426Z,3.27
2018-03-08T18:58:33.652Z,3.40
2018-03-08T19:01:01.178Z,3.00
2018-03-08T19:03:28.726Z,3.20
2018-03-08T19:05:57.013Z,3.20
2018-03-08T19:08:24.625Z,3.70
2018-03-08T19:10:52.149Z,3.60
2018-03-08T19:13:19.711Z,3.00
2018-03-08T19:15:47.248Z,4.00
2018-03-08T19:18:14.802Z,4.50
2018-03-08T19:20:42.373Z,4.50
2018-03-08T19:23:09.925Z,3.80
2018-03-08T19:25:37.451Z,4.80
2018-03-08T19:28:05.085Z,3.57
2018-03-08T19:30:32.615Z,4.40
2018-03-08T19:33:00.179Z,3.90
2018-03-08T19:35:27.716Z,3.63
2018-03-08T19:37:56.028Z,3.70
2018-03-08T19:40:23.558Z,3.47
2018-03-08T19:42:51.200Z,4.33
2018-03-08T19:45:18.762Z,3.80
2018-03-08T19:47:47.070Z,3.13
2018-03-08T19:50:14.599Z,3.60
2018-03-08T19:52:42.911Z,2.80
2018-03-08T19:55:10.446Z,2.63
2018-03-08T19:57:38.007Z,3.00
2018-03-08T20:00:05.569Z,3.53
2018-03-08T20:02:33.123Z,3.57
2018-03-08T20:05:01.587Z,2.90
2018-03-08T20:07:29.251Z,3.20
2018-03-08T20:09:57.558Z,3.03
2018-03-08T20:12:25.115Z,3.27
2018-03-08T20:14:52.666Z,2.80
2018-03-08T20:17:20.996Z,3.20
2018-03-08T20:19:48.528Z,3.30
2018-03-08T20:22:16.130Z,3.87
2018-03-08T20:24:43.717Z,4.40
2018-03-08T20:27:12.011Z,5.47
2018-03-08T20:29:39.558Z,4.70
2018-03-08T20:32:07.850Z,9.00
2018-03-08T20:34:35.407Z,4.80
2018-03-08T20:37:02.942Z,5.70
2018-03-08T20:39:31.266Z,5.07
2018-03-08T20:41:58.824Z,4.97
2018-03-08T20:44:26.387Z,5.33
2018-03-08T20:46:53.919Z,6.43
2018-03-08T20:49:21.493Z,6.77
2018-03-08T20:51:49.027Z,5.00
2018-03-08T20:54:17.342Z,3.93
2018-03-08T20:56:44.869Z,4.13
2018-03-08T20:59:13.179Z,5.27
2018-03-08T21:01:40.712Z,4.00
2018-03-08T21:04:08.270Z,3.50
2018-03-08T21:06:36.558Z,10.63
2018-03-08T21:09:04.122Z,4.80
2018-03-08T21:11:31.655Z,4.43
2018-03-08T21:13:59.974Z,4.07
2018-03-08T21:16:27.498Z,3.63
2018-03-08T21:18:55.815Z,4.60
2018-03-08T21:21:23.358Z,6.20
2018-03-08T21:23:53.758Z,5.83
2018-03-08T21:26:22.042Z,4.73
2018-03-08T21:28:50.350Z,4.63
2018-03-08T21:31:17.873Z,4.93
2018-03-08T21:33:46.185Z,4.27
2018-03-08T21:36:13.718Z,3.90
2018-03-08T21:38:41.268Z,4.00
2018-03-08T21:41:09.559Z,5.10
2018-03-08T21:43:42.175Z,5.13
2018-03-08T21:46:09.693Z,6.23
2018-03-08T21:48:37.242Z,4.13
2018-03-08T21:51:05.535Z,6.73
2018-03-08T21:53:33.090Z,5.13
2018-03-08T21:56:00.618Z,4.20
2018-03-08T21:58:28.167Z,5.60
2018-03-08T22:00:55.711Z,5.23
2018-03-08T22:03:23.258Z,4.87
2018-03-08T22:05:50.786Z,5.27
2018-03-08T22:08:18.342Z,4.67
2018-03-08T22:10:46.639Z,6.70
2018-03-08T22:13:14.195Z,6.07
2018-03-08T22:15:41.719Z,4.33
2018-03-08T22:18:09.266Z,5.30
2018-03-08T22:20:36.792Z,4.53
2018-03-08T22:23:04.343Z,5.17
2018-03-08T22:25:31.870Z,5.03
2018-03-08T22:28:00.184Z,7.13
2018-03-08T22:30:28.008Z,5.97
2018-03-08T22:32:56.329Z,6.27
2018-03-08T22:35:24.315Z,5.70
2018-03-08T22:37:52.858Z,7.40
2018-03-08T22:42:53.425Z,5.57
2018-03-08T22:45:20.993Z,4.30
2018-03-08T22:47:48.510Z,6.43
2018-03-08T22:50:16.813Z,5.07
2018-03-08T22:52:44.342Z,6.77
2018-03-08T22:55:12.716Z,6.77
2018-03-08T22:57:41.082Z,7.70
2018-03-08T23:00:08.691Z,8.80
2018-03-08T23:02:36.221Z,5.63
2018-03-08T23:05:04.532Z,6.77
2018-03-08T23:07:32.274Z,6.90
2018-03-08T23:10:00.578Z,6.93
2018-03-08T23:12:28.107Z,4.53
2018-03-08T23:14:56.434Z,7.17
2018-03-08T23:17:23.956Z,6.30
2018-03-08T23:19:51.506Z,7.57
2018-03-08T23:22:19.803Z,6.63
2018-03-08T23:24:47.349Z,5.90
2018-03-08T23:27:14.882Z,8.47
2018-03-08T23:29:42.438Z,6.63
2018-03-08T23:32:09.967Z,5.07
2018-03-08T23:34:38.282Z,5.73
2018-03-08T23:37:05.806Z,5.33
2018-03-08T23:39:33.500Z,3.77
2018-03-08T23:42:01.050Z,7.23
2018-03-08T23:44:28.595Z,6.33
2018-03-08T23:46:56.127Z,8.43
2018-03-08T23:49:23.675Z,10.50
2018-03-08T23:51:51.214Z,11.17
2018-03-08T23:54:19.550Z,13.47
2018-03-08T23:56:47.147Z,12.93
2018-03-08T23:59:15.483Z,15.07
